sensor_id;sensor_type;location;lat;lon;timestamp;temperature;humidity
21439;DHT22;10880;50.302;18.736;2022-09-03T00:01:39;20.60;44.40
21439;DHT22;10880;50.302;18.736;2022-09-03T00:04:15;20.60;44.40
21439;DHT22;10880;50.302;18.736;2022-09-03T00:06:47;20.60;44.30
21439;DHT22;10880;50.302;18.736;2022-09-03T00:09:26;20.60;44.30
21439;DHT22;10880;50.302;18.736;2022-09-03T00:11:59;20.50;44.30
21439;DHT22;10880;50.302;18.736;2022-09-03T00:17:29;20.50;44.40
21439;DHT22;10880;50.302;18.736;2022-09-03T00:22:47;20.40;44.40
21439;DHT22;10880;50.302;18.736;2022-09-03T00:25:22;20.40;44.40
21439;DHT22;10880;50.302;18.736;2022-09-03T00:27:52;20.30;44.40
21439;DHT22;10880;50.302;18.736;2022-09-03T00:30:21;20.30;44.40
21439;DHT22;10880;50.302;18.736;2022-09-03T00:33:22;20.20;44.30
21439;DHT22;10880;50.302;18.736;2022-09-03T00:36:55;20.20;44.50
21439;DHT22;10880;50.302;18.736;2022-09-03T00:38:49;20.20;44.60
21439;DHT22;10880;50.302;18.736;2022-09-03T00:41:43;20.10;44.30
21439;DHT22;10880;50.302;18.736;2022-09-03T00:46:54;20.10;45.30
21439;DHT22;10880;50.302;18.736;2022-09-03T00:49:51;20.10;44.70
21439;DHT22;10880;50.302;18.736;2022-09-03T00:55:30;20.00;44.60
21439;DHT22;10880;50.302;18.736;2022-09-03T01:00:37;20.00;44.70
21439;DHT22;10880;50.302;18.736;2022-09-03T01:06:12;19.90;44.70
21439;DHT22;10880;50.302;18.736;2022-09-03T01:09:11;19.90;44.70
21439;DHT22;10880;50.302;18.736;2022-09-03T01:12:12;19.90;44.80
21439;DHT22;10880;50.302;18.736;2022-09-03T01:17:31;19.90;44.80
21439;DHT22;10880;50.302;18.736;2022-09-03T01:20:19;19.90;44.90
21439;DHT22;10880;50.302;18.736;2022-09-03T01:25:58;19.80;44.80
21439;DHT22;10880;50.302;18.736;2022-09-03T01:29:15;19.80;44.90
21439;DHT22;10880;50.302;18.736;2022-09-03T01:34:28;19.80;44.90
21439;DHT22;10880;50.302;18.736;2022-09-03T01:53:59;19.70;44.90
21439;DHT22;10880;50.302;18.736;2022-09-03T01:59:33;19.60;44.90
21439;DHT22;10880;50.302;18.736;2022-09-03T02:02:07;19.60;45.00
21439;DHT22;10880;50.302;18.736;2022-09-03T02:04:34;19.30;44.80
21439;DHT22;10880;50.302;18.736;2022-09-03T02:07:01;19.50;44.80
21439;DHT22;10880;50.302;18.736;2022-09-03T02:09:28;19.50;45.00
21439;DHT22;10880;50.302;18.736;2022-09-03T02:12:07;19.50;44.80
21439;DHT22;10880;50.302;18.736;2022-09-03T02:14:36;19.50;45.10
21439;DHT22;10880;50.302;18.736;2022-09-03T02:17:04;19.40;44.60
21439;DHT22;10880;50.302;18.736;2022-09-03T02:19:32;19.40;45.10
21439;DHT22;10880;50.302;18.736;2022-09-03T02:21:59;19.40;45.20
21439;DHT22;10880;50.302;18.736;2022-09-03T02:24:27;19.40;44.70
21439;DHT22;10880;50.302;18.736;2022-09-03T02:26:53;19.40;44.80
21439;DHT22;10880;50.302;18.736;2022-09-03T02:29:20;19.30;45.00
21439;DHT22;10880;50.302;18.736;2022-09-03T02:31:47;19.30;45.00
21439;DHT22;10880;50.302;18.736;2022-09-03T02:34:14;19.30;44.70
21439;DHT22;10880;50.302;18.736;2022-09-03T02:36:43;19.30;45.00
21439;DHT22;10880;50.302;18.736;2022-09-03T02:39:12;19.30;45.30
21439;DHT22;10880;50.302;18.736;2022-09-03T02:41:39;19.30;45.30
21439;DHT22;10880;50.302;18.736;2022-09-03T02:44:15;19.30;44.90
21439;DHT22;10880;50.302;18.736;2022-09-03T02:46:47;19.20;45.40
21439;DHT22;10880;50.302;18.736;2022-09-03T02:49:15;19.20;45.30
21439;DHT22;10880;50.302;18.736;2022-09-03T02:51:42;19.20;45.00
21439;DHT22;10880;50.302;18.736;2022-09-03T02:54:10;19.20;45.40
21439;DHT22;10880;50.302;18.736;2022-09-03T02:56:37;19.20;45.30
21439;DHT22;10880;50.302;18.736;2022-09-03T02:59:07;19.20;45.40
21439;DHT22;10880;50.302;18.736;2022-09-03T03:01:35;19.20;45.20
21439;DHT22;10880;50.302;18.736;2022-09-03T03:04:02;19.10;45.40
21439;DHT22;10880;50.302;18.736;2022-09-03T03:06:29;19.10;45.00
21439;DHT22;10880;50.302;18.736;2022-09-03T03:08:55;19.10;45.10
21439;DHT22;10880;50.302;18.736;2022-09-03T03:11:22;19.10;45.20
21439;DHT22;10880;50.302;18.736;2022-09-03T03:13:51;19.10;45.20
21439;DHT22;10880;50.302;18.736;2022-09-03T03:16:18;19.10;45.10
21439;DHT22;10880;50.302;18.736;2022-09-03T03:18:44;19.10;45.10
21439;DHT22;10880;50.302;18.736;2022-09-03T03:21:16;19.00;45.40
21439;DHT22;10880;50.302;18.736;2022-09-03T03:23:43;19.00;45.50
21439;DHT22;10880;50.302;18.736;2022-09-03T03:26:12;19.00;45.20
21439;DHT22;10880;50.302;18.736;2022-09-03T03:28:38;19.00;45.60
21439;DHT22;10880;50.302;18.736;2022-09-03T03:31:09;19.00;45.40
21439;DHT22;10880;50.302;18.736;2022-09-03T03:33:37;19.00;45.60
21439;DHT22;10880;50.302;18.736;2022-09-03T03:36:09;19.00;45.60
21439;DHT22;10880;50.302;18.736;2022-09-03T03:38:37;19.00;45.60
21439;DHT22;10880;50.302;18.736;2022-09-03T03:41:16;19.00;45.60
21439;DHT22;10880;50.302;18.736;2022-09-03T03:43:43;19.00;45.70
21439;DHT22;10880;50.302;18.736;2022-09-03T03:46:10;19.00;45.60
21439;DHT22;10880;50.302;18.736;2022-09-03T03:48:37;19.00;45.60
21439;DHT22;10880;50.302;18.736;2022-09-03T03:51:07;19.00;45.50
21439;DHT22;10880;50.302;18.736;2022-09-03T03:53:35;19.00;45.70
21439;DHT22;10880;50.302;18.736;2022-09-03T03:56:04;19.00;45.70
21439;DHT22;10880;50.302;18.736;2022-09-03T03:58:32;19.00;45.70
21439;DHT22;10880;50.302;18.736;2022-09-03T04:01:06;19.00;45.70
21439;DHT22;10880;50.302;18.736;2022-09-03T04:03:34;18.90;45.60
21439;DHT22;10880;50.302;18.736;2022-09-03T04:06:01;18.90;45.40
21439;DHT22;10880;50.302;18.736;2022-09-03T04:08:32;18.90;45.60
21439;DHT22;10880;50.302;18.736;2022-09-03T04:11:01;18.90;45.70
21439;DHT22;10880;50.302;18.736;2022-09-03T04:13:31;18.90;45.80
21439;DHT22;10880;50.302;18.736;2022-09-03T04:16:02;18.80;45.80
21439;DHT22;10880;50.302;18.736;2022-09-03T04:18:30;18.80;45.80
21439;DHT22;10880;50.302;18.736;2022-09-03T04:21:08;18.80;45.80
21439;DHT22;10880;50.302;18.736;2022-09-03T04:23:38;18.80;45.80
21439;DHT22;10880;50.302;18.736;2022-09-03T04:26:06;18.80;45.80
21439;DHT22;10880;50.302;18.736;2022-09-03T04:28:32;18.80;45.90
21439;DHT22;10880;50.302;18.736;2022-09-03T04:31:03;18.80;45.60
21439;DHT22;10880;50.302;18.736;2022-09-03T04:33:31;18.80;46.10
21439;DHT22;10880;50.302;18.736;2022-09-03T04:36:38;18.80;46.00
21439;DHT22;10880;50.302;18.736;2022-09-03T04:38:58;18.80;46.10
21439;DHT22;10880;50.302;18.736;2022-09-03T04:41:27;18.80;46.00
21439;DHT22;10880;50.302;18.736;2022-09-03T04:43:56;18.80;46.00
21439;DHT22;10880;50.302;18.736;2022-09-03T04:46:24;18.80;46.10
21439;DHT22;10880;50.302;18.736;2022-09-03T04:48:52;18.80;46.10
21439;DHT22;10880;50.302;18.736;2022-09-03T04:51:22;18.80;46.10
21439;DHT22;10880;50.302;18.736;2022-09-03T04:53:54;18.80;46.10
21439;DHT22;10880;50.302;18.736;2022-09-03T04:56:24;18.70;46.10
21439;DHT22;10880;50.302;18.736;2022-09-03T04:58:56;18.70;46.20
21439;DHT22;10880;50.302;18.736;2022-09-03T05:01:25;18.70;46.30
21439;DHT22;10880;50.302;18.736;2022-09-03T05:03:52;18.70;46.30
21439;DHT22;10880;50.302;18.736;2022-09-03T05:06:19;18.70;46.10
21439;DHT22;10880;50.302;18.736;2022-09-03T05:08:49;18.70;45.90
21439;DHT22;10880;50.302;18.736;2022-09-03T05:11:16;18.70;46.50
21439;DHT22;10880;50.302;18.736;2022-09-03T05:13:46;18.70;46.00
21439;DHT22;10880;50.302;18.736;2022-09-03T05:16:14;18.80;46.50
21439;DHT22;10880;50.302;18.736;2022-09-03T05:18:41;18.80;46.60
21439;DHT22;10880;50.302;18.736;2022-09-03T05:21:13;18.80;45.90
21439;DHT22;10880;50.302;18.736;2022-09-03T05:23:41;18.80;46.80
21439;DHT22;10880;50.302;18.736;2022-09-03T05:26:15;18.80;46.70
21439;DHT22;10880;50.302;18.736;2022-09-03T05:28:43;18.80;46.80
21439;DHT22;10880;50.302;18.736;2022-09-03T05:33:41;18.90;46.40
21439;DHT22;10880;50.302;18.736;2022-09-03T05:36:10;18.90;46.90
21439;DHT22;10880;50.302;18.736;2022-09-03T05:38:37;18.90;46.90
21439;DHT22;10880;50.302;18.736;2022-09-03T05:41:09;18.90;46.70
21439;DHT22;10880;50.302;18.736;2022-09-03T05:43:36;19.00;47.10
21439;DHT22;10880;50.302;18.736;2022-09-03T05:46:08;19.00;47.20
21439;DHT22;10880;50.302;18.736;2022-09-03T05:48:37;19.00;47.20
21439;DHT22;10880;50.302;18.736;2022-09-03T05:51:09;19.00;47.20
21439;DHT22;10880;50.302;18.736;2022-09-03T05:53:39;19.10;47.30
21439;DHT22;10880;50.302;18.736;2022-09-03T05:56:08;19.20;46.90
21439;DHT22;10880;50.302;18.736;2022-09-03T05:58:37;19.20;47.40
21439;DHT22;10880;50.302;18.736;2022-09-03T06:01:16;19.20;47.50
21439;DHT22;10880;50.302;18.736;2022-09-03T06:03:44;19.20;47.60
21439;DHT22;10880;50.302;18.736;2022-09-03T06:06:11;19.30;47.60
21439;DHT22;10880;50.302;18.736;2022-09-03T06:08:41;19.30;47.50
21439;DHT22;10880;50.302;18.736;2022-09-03T06:11:10;19.30;47.30
21439;DHT22;10880;50.302;18.736;2022-09-03T06:13:37;19.40;47.70
21439;DHT22;10880;50.302;18.736;2022-09-03T06:16:04;19.40;47.20
21439;DHT22;10880;50.302;18.736;2022-09-03T06:18:31;19.40;47.70
21439;DHT22;10880;50.302;18.736;2022-09-03T06:21:03;19.50;47.60
21439;DHT22;10880;50.302;18.736;2022-09-03T06:23:30;19.50;47.80
21439;DHT22;10880;50.302;18.736;2022-09-03T06:26:04;19.60;47.90
21439;DHT22;10880;50.302;18.736;2022-09-03T06:28:35;19.60;48.10
21439;DHT22;10880;50.302;18.736;2022-09-03T06:31:05;19.60;48.10
21439;DHT22;10880;50.302;18.736;2022-09-03T06:33:34;19.60;48.10
21439;DHT22;10880;50.302;18.736;2022-09-03T06:36:03;19.70;48.30
21439;DHT22;10880;50.302;18.736;2022-09-03T06:38:32;19.70;48.30
21439;DHT22;10880;50.302;18.736;2022-09-03T06:41:05;19.70;48.30
21439;DHT22;10880;50.302;18.736;2022-09-03T06:43:35;19.80;48.50
21439;DHT22;10880;50.302;18.736;2022-09-03T06:46:07;19.80;48.60
21439;DHT22;10880;50.302;18.736;2022-09-03T06:48:34;19.90;48.80
21439;DHT22;10880;50.302;18.736;2022-09-03T06:53:30;19.70;48.40
21439;DHT22;10880;50.302;18.736;2022-09-03T06:55:59;20.00;48.80
21439;DHT22;10880;50.302;18.736;2022-09-03T06:58:31;20.10;48.90
21439;DHT22;10880;50.302;18.736;2022-09-03T07:01:06;20.10;48.80
21439;DHT22;10880;50.302;18.736;2022-09-03T07:03:34;20.20;49.00
21439;DHT22;10880;50.302;18.736;2022-09-03T07:06:04;20.30;48.90
21439;DHT22;10880;50.302;18.736;2022-09-03T07:08:32;20.30;49.10
21439;DHT22;10880;50.302;18.736;2022-09-03T07:11:04;20.40;49.00
21439;DHT22;10880;50.302;18.736;2022-09-03T07:13:35;20.40;49.20
21439;DHT22;10880;50.302;18.736;2022-09-03T07:16:04;20.50;49.20
21439;DHT22;10880;50.302;18.736;2022-09-03T07:18:31;20.60;49.20
21439;DHT22;10880;50.302;18.736;2022-09-03T07:20:59;20.70;48.80
21439;DHT22;10880;50.302;18.736;2022-09-03T07:23:27;20.80;49.30
21439;DHT22;10880;50.302;18.736;2022-09-03T07:25:55;20.80;49.20
21439;DHT22;10880;50.302;18.736;2022-09-03T07:28:22;20.90;49.20
21439;DHT22;10880;50.302;18.736;2022-09-03T07:30:53;21.00;49.20
21439;DHT22;10880;50.302;18.736;2022-09-03T07:33:20;21.00;49.10
21439;DHT22;10880;50.302;18.736;2022-09-03T07:35:46;21.10;48.70
21439;DHT22;10880;50.302;18.736;2022-09-03T07:38:17;21.20;48.70
21439;DHT22;10880;50.302;18.736;2022-09-03T07:40:46;21.30;49.10
21439;DHT22;10880;50.302;18.736;2022-09-03T07:43:13;21.40;49.00
21439;DHT22;10880;50.302;18.736;2022-09-03T07:45:39;21.40;48.60
21439;DHT22;10880;50.302;18.736;2022-09-03T07:48:06;21.50;48.80
21439;DHT22;10880;50.302;18.736;2022-09-03T07:50:32;21.60;48.50
21439;DHT22;10880;50.302;18.736;2022-09-03T07:53:04;21.60;48.80
21439;DHT22;10880;50.302;18.736;2022-09-03T07:55:30;21.70;48.50
21439;DHT22;10880;50.302;18.736;2022-09-03T07:57:56;21.80;48.50
21439;DHT22;10880;50.302;18.736;2022-09-03T08:00:25;21.90;48.70
21439;DHT22;10880;50.302;18.736;2022-09-03T08:02:51;21.90;48.50
21439;DHT22;10880;50.302;18.736;2022-09-03T08:05:18;22.00;48.40
21439;DHT22;10880;50.302;18.736;2022-09-03T08:07:46;22.00;48.60
21439;DHT22;10880;50.302;18.736;2022-09-03T08:10:14;22.10;48.60
21439;DHT22;10880;50.302;18.736;2022-09-03T08:12:41;22.20;48.80
21439;DHT22;10880;50.302;18.736;2022-09-03T08:15:08;22.20;48.30
21439;DHT22;10880;50.302;18.736;2022-09-03T08:17:35;22.30;48.60
21439;DHT22;10880;50.302;18.736;2022-09-03T08:20:02;22.30;48.20
21439;DHT22;10880;50.302;18.736;2022-09-03T08:22:29;22.40;48.70
21439;DHT22;10880;50.302;18.736;2022-09-03T08:24:55;22.50;48.30
21439;DHT22;10880;50.302;18.736;2022-09-03T08:27:21;22.60;48.20
21439;DHT22;10880;50.302;18.736;2022-09-03T08:29:50;22.60;48.40
21439;DHT22;10880;50.302;18.736;2022-09-03T08:32:16;22.60;48.10
21439;DHT22;10880;50.302;18.736;2022-09-03T08:34:43;22.70;48.00
21439;DHT22;10880;50.302;18.736;2022-09-03T08:37:09;22.80;48.00
21439;DHT22;10880;50.302;18.736;2022-09-03T08:39:37;22.80;48.20
21439;DHT22;10880;50.302;18.736;2022-09-03T08:44:56;22.90;48.00
21439;DHT22;10880;50.302;18.736;2022-09-03T08:47:48;23.00;48.30
21439;DHT22;10880;50.302;18.736;2022-09-03T08:53:16;23.10;48.30
21439;DHT22;10880;50.302;18.736;2022-09-03T08:56:01;23.20;48.30
21439;DHT22;10880;50.302;18.736;2022-09-03T08:58:32;23.20;48.20
21439;DHT22;10880;50.302;18.736;2022-09-03T09:03:56;23.30;48.80
21439;DHT22;10880;50.302;18.736;2022-09-03T09:06:38;23.40;47.90
21439;DHT22;10880;50.302;18.736;2022-09-03T09:15:12;23.50;47.70
21439;DHT22;10880;50.302;18.736;2022-09-03T09:23:03;23.60;47.50
21439;DHT22;10880;50.302;18.736;2022-09-03T09:25:31;23.60;47.50
21439;DHT22;10880;50.302;18.736;2022-09-03T09:30:48;23.70;47.50
21439;DHT22;10880;50.302;18.736;2022-09-03T09:33:16;23.70;47.40
21439;DHT22;10880;50.302;18.736;2022-09-03T09:35:43;23.70;47.40
21439;DHT22;10880;50.302;18.736;2022-09-03T09:38:10;23.80;47.30
21439;DHT22;10880;50.302;18.736;2022-09-03T09:40:39;23.80;46.90
21439;DHT22;10880;50.302;18.736;2022-09-03T09:43:15;23.80;47.00
21439;DHT22;10880;50.302;18.736;2022-09-03T09:45:47;23.80;47.00
21439;DHT22;10880;50.302;18.736;2022-09-03T09:50:43;23.80;46.90
21439;DHT22;10880;50.302;18.736;2022-09-03T09:53:11;23.80;46.50
21439;DHT22;10880;50.302;18.736;2022-09-03T09:55:52;23.80;46.90
21439;DHT22;10880;50.302;18.736;2022-09-03T09:58:21;23.80;47.00
21439;DHT22;10880;50.302;18.736;2022-09-03T10:01:09;23.80;46.90
21439;DHT22;10880;50.302;18.736;2022-09-03T10:03:53;23.80;47.00
21439;DHT22;10880;50.302;18.736;2022-09-03T10:06:23;23.80;46.90
21439;DHT22;10880;50.302;18.736;2022-09-03T10:09:14;23.80;46.90
21439;DHT22;10880;50.302;18.736;2022-09-03T10:14:38;23.90;46.90
21439;DHT22;10880;50.302;18.736;2022-09-03T10:17:21;23.90;46.90
21439;DHT22;10880;50.302;18.736;2022-09-03T10:22:46;23.90;46.70
21439;DHT22;10880;50.302;18.736;2022-09-03T10:25:16;23.90;46.70
21439;DHT22;10880;50.302;18.736;2022-09-03T10:27:45;23.80;46.70
21439;DHT22;10880;50.302;18.736;2022-09-03T10:30:12;23.80;46.30
21439;DHT22;10880;50.302;18.736;2022-09-03T10:33:18;23.80;46.60
21439;DHT22;10880;50.302;18.736;2022-09-03T10:35:46;23.80;46.70
21439;DHT22;10880;50.302;18.736;2022-09-03T10:38:26;23.80;46.60
21439;DHT22;10880;50.302;18.736;2022-09-03T10:49:12;23.80;46.50
21439;DHT22;10880;50.302;18.736;2022-09-03T10:52:52;23.80;46.80
21439;DHT22;10880;50.302;18.736;2022-09-03T10:55:08;23.80;46.80
21439;DHT22;10880;50.302;18.736;2022-09-03T10:57:50;23.80;46.80
21439;DHT22;10880;50.302;18.736;2022-09-03T11:00:19;23.80;46.70
21439;DHT22;10880;50.302;18.736;2022-09-03T11:08:24;23.80;46.60
21439;DHT22;10880;50.302;18.736;2022-09-03T11:11:16;23.80;46.90
21439;DHT22;10880;50.302;18.736;2022-09-03T11:13:50;23.80;46.80
21439;DHT22;10880;50.302;18.736;2022-09-03T11:16:22;23.80;46.90
21439;DHT22;10880;50.302;18.736;2022-09-03T11:19:00;23.80;46.80
21439;DHT22;10880;50.302;18.736;2022-09-03T11:21:29;23.80;46.70
21439;DHT22;10880;50.302;18.736;2022-09-03T11:24:19;23.80;46.70
21439;DHT22;10880;50.302;18.736;2022-09-03T11:27:06;23.80;46.80
21439;DHT22;10880;50.302;18.736;2022-09-03T11:32:23;23.80;46.50
21439;DHT22;10880;50.302;18.736;2022-09-03T11:34:53;23.70;46.60
21439;DHT22;10880;50.302;18.736;2022-09-03T11:37:24;23.70;46.30
21439;DHT22;10880;50.302;18.736;2022-09-03T11:40:12;23.70;46.80
21439;DHT22;10880;50.302;18.736;2022-09-03T11:42:43;23.70;46.90
21439;DHT22;10880;50.302;18.736;2022-09-03T11:45:22;23.70;46.80
21439;DHT22;10880;50.302;18.736;2022-09-03T11:47:50;23.70;46.80
21439;DHT22;10880;50.302;18.736;2022-09-03T11:50:25;23.70;46.60
21439;DHT22;10880;50.302;18.736;2022-09-03T11:53:08;23.70;47.00
21439;DHT22;10880;50.302;18.736;2022-09-03T11:55:55;23.70;47.00
21439;DHT22;10880;50.302;18.736;2022-09-03T11:58:29;23.80;46.90
21439;DHT22;10880;50.302;18.736;2022-09-03T12:00:57;23.80;46.90
21439;DHT22;10880;50.302;18.736;2022-09-03T12:03:28;23.80;46.90
21439;DHT22;10880;50.302;18.736;2022-09-03T12:06:19;23.80;46.90
21439;DHT22;10880;50.302;18.736;2022-09-03T12:12:05;23.80;47.00
21439;DHT22;10880;50.302;18.736;2022-09-03T12:18:07;23.70;47.00
21439;DHT22;10880;50.302;18.736;2022-09-03T12:26:05;23.70;47.00
21439;DHT22;10880;50.302;18.736;2022-09-03T12:28:37;23.70;47.00
21439;DHT22;10880;50.302;18.736;2022-09-03T12:31:28;23.70;46.90
21439;DHT22;10880;50.302;18.736;2022-09-03T12:34:00;23.70;46.80
21439;DHT22;10880;50.302;18.736;2022-09-03T12:36:47;23.70;46.90
21439;DHT22;10880;50.302;18.736;2022-09-03T12:42:04;23.60;46.50
21439;DHT22;10880;50.302;18.736;2022-09-03T12:44:40;23.60;46.80
21439;DHT22;10880;50.302;18.736;2022-09-03T12:47:13;23.60;46.90
21439;DHT22;10880;50.302;18.736;2022-09-03T12:49:46;23.60;46.80
21439;DHT22;10880;50.302;18.736;2022-09-03T12:52:28;23.60;46.80
21439;DHT22;10880;50.302;18.736;2022-09-03T12:57:42;23.50;46.80
21439;DHT22;10880;50.302;18.736;2022-09-03T13:00:13;23.50;46.70
21439;DHT22;10880;50.302;18.736;2022-09-03T13:03:18;23.50;46.70
21439;DHT22;10880;50.302;18.736;2022-09-03T13:05:51;23.50;47.10
21439;DHT22;10880;50.302;18.736;2022-09-03T13:08:31;23.50;46.80
21439;DHT22;10880;50.302;18.736;2022-09-03T13:11:00;23.50;46.90
21439;DHT22;10880;50.302;18.736;2022-09-03T13:13:33;23.50;46.80
21439;DHT22;10880;50.302;18.736;2022-09-03T13:16:40;23.50;46.80
21439;DHT22;10880;50.302;18.736;2022-09-03T13:25:23;23.50;47.00
21439;DHT22;10880;50.302;18.736;2022-09-03T13:33:23;23.50;47.10
21439;DHT22;10880;50.302;18.736;2022-09-03T13:36:00;23.50;47.10
21439;DHT22;10880;50.302;18.736;2022-09-03T13:38:38;23.50;47.10
21439;DHT22;10880;50.302;18.736;2022-09-03T13:41:40;23.50;47.10
21439;DHT22;10880;50.302;18.736;2022-09-03T13:44:13;23.50;47.20
21439;DHT22;10880;50.302;18.736;2022-09-03T13:46:45;23.50;47.00
21439;DHT22;10880;50.302;18.736;2022-09-03T13:52:02;23.60;47.10
21439;DHT22;10880;50.302;18.736;2022-09-03T13:54:34;23.60;47.10
21439;DHT22;10880;50.302;18.736;2022-09-03T14:00:11;23.60;47.20
21439;DHT22;10880;50.302;18.736;2022-09-03T14:05:46;23.60;47.30
21439;DHT22;10880;50.302;18.736;2022-09-03T14:08:27;23.70;47.20
21439;DHT22;10880;50.302;18.736;2022-09-03T14:11:22;23.70;47.30
21439;DHT22;10880;50.302;18.736;2022-09-03T14:16:41;23.70;46.90
21439;DHT22;10880;50.302;18.736;2022-09-03T14:19:20;23.70;47.10
21439;DHT22;10880;50.302;18.736;2022-09-03T14:22:25;23.70;47.30
21439;DHT22;10880;50.302;18.736;2022-09-03T14:25:00;23.70;47.30
21439;DHT22;10880;50.302;18.736;2022-09-03T14:27:30;23.70;47.30
21439;DHT22;10880;50.302;18.736;2022-09-03T14:30:06;23.70;47.20
21439;DHT22;10880;50.302;18.736;2022-09-03T14:35:44;23.80;47.30
21439;DHT22;10880;50.302;18.736;2022-09-03T14:38:36;23.80;47.30
21439;DHT22;10880;50.302;18.736;2022-09-03T14:41:19;23.80;47.30
21439;DHT22;10880;50.302;18.736;2022-09-03T14:46:59;23.80;47.30
21439;DHT22;10880;50.302;18.736;2022-09-03T14:55:20;23.80;47.30
21439;DHT22;10880;50.302;18.736;2022-09-03T14:57:59;23.80;47.40
21439;DHT22;10880;50.302;18.736;2022-09-03T15:00:51;23.90;47.40
21439;DHT22;10880;50.302;18.736;2022-09-03T15:09:21;23.90;47.30
21439;DHT22;10880;50.302;18.736;2022-09-03T15:12:05;23.90;47.30
21439;DHT22;10880;50.302;18.736;2022-09-03T15:14:53;23.90;47.30
21439;DHT22;10880;50.302;18.736;2022-09-03T15:23:10;23.90;47.50
21439;DHT22;10880;50.302;18.736;2022-09-03T15:26:09;23.90;47.40
21439;DHT22;10880;50.302;18.736;2022-09-03T15:32:01;24.00;47.50
21439;DHT22;10880;50.302;18.736;2022-09-03T15:37:38;24.00;47.50
21439;DHT22;10880;50.302;18.736;2022-09-03T15:43:28;24.00;47.50
21439;DHT22;10880;50.302;18.736;2022-09-03T15:48:48;24.00;47.30
21439;DHT22;10880;50.302;18.736;2022-09-03T15:51:27;24.00;47.60
21439;DHT22;10880;50.302;18.736;2022-09-03T15:54:16;24.00;47.40
21439;DHT22;10880;50.302;18.736;2022-09-03T15:56:49;24.00;47.50
21439;DHT22;10880;50.302;18.736;2022-09-03T15:59:28;24.00;47.50
21439;DHT22;10880;50.302;18.736;2022-09-03T16:02:15;24.00;48.10
21439;DHT22;10880;50.302;18.736;2022-09-03T16:04:54;24.00;47.50
21439;DHT22;10880;50.302;18.736;2022-09-03T16:10:13;24.00;47.50
21439;DHT22;10880;50.302;18.736;2022-09-03T16:16:17;23.90;47.40
21439;DHT22;10880;50.302;18.736;2022-09-03T17:15:18;21.00;50.80
21439;DHT22;10880;50.302;18.736;2022-09-03T17:39:54;22.10;49.60
21439;DHT22;10880;50.302;18.736;2022-09-03T17:42:37;22.20;49.90
21439;DHT22;10880;50.302;18.736;2022-09-03T17:51:57;22.30;49.70
21439;DHT22;10880;50.302;18.736;2022-09-03T17:54:06;22.40;49.70
21439;DHT22;10880;50.302;18.736;2022-09-03T17:56:53;22.40;49.50
21439;DHT22;10880;50.302;18.736;2022-09-03T18:05:09;22.50;49.50
21439;DHT22;10880;50.302;18.736;2022-09-03T18:16:10;22.60;49.30
21439;DHT22;10880;50.302;18.736;2022-09-03T18:18:49;22.60;49.20
21439;DHT22;10880;50.302;18.736;2022-09-03T18:21:22;22.60;49.20
21439;DHT22;10880;50.302;18.736;2022-09-03T18:24:20;22.60;49.10
21439;DHT22;10880;50.302;18.736;2022-09-03T18:27:11;22.60;49.10
21439;DHT22;10880;50.302;18.736;2022-09-03T18:30:06;22.50;49.10
21439;DHT22;10880;50.302;18.736;2022-09-03T18:32:53;22.50;49.10
21439;DHT22;10880;50.302;18.736;2022-09-03T18:35:47;22.50;49.00
21439;DHT22;10880;50.302;18.736;2022-09-03T18:38:35;22.50;49.00
21439;DHT22;10880;50.302;18.736;2022-09-03T18:47:58;22.40;49.10
21439;DHT22;10880;50.302;18.736;2022-09-03T18:53:52;22.40;49.10
21439;DHT22;10880;50.302;18.736;2022-09-03T18:56:51;22.30;49.10
21439;DHT22;10880;50.302;18.736;2022-09-03T19:00:05;22.30;49.20
21439;DHT22;10880;50.302;18.736;2022-09-03T19:06:07;22.20;49.20
21439;DHT22;10880;50.302;18.736;2022-09-03T19:11:54;22.20;49.40
21439;DHT22;10880;50.302;18.736;2022-09-03T19:15:00;22.10;49.40
21439;DHT22;10880;50.302;18.736;2022-09-03T19:23:59;22.10;49.40
21439;DHT22;10880;50.302;18.736;2022-09-03T19:33:03;22.00;49.40
21439;DHT22;10880;50.302;18.736;2022-09-03T19:39:18;21.90;49.60
21439;DHT22;10880;50.302;18.736;2022-09-03T19:51:11;21.70;49.70
21439;DHT22;10880;50.302;18.736;2022-09-03T19:54:02;21.70;49.80
21439;DHT22;10880;50.302;18.736;2022-09-03T19:56:49;21.70;49.80
21439;DHT22;10880;50.302;18.736;2022-09-03T19:59:41;21.70;49.80
21439;DHT22;10880;50.302;18.736;2022-09-03T20:02:28;21.70;49.80
21439;DHT22;10880;50.302;18.736;2022-09-03T20:05:19;21.70;49.80
21439;DHT22;10880;50.302;18.736;2022-09-03T20:08:05;21.70;49.80
21439;DHT22;10880;50.302;18.736;2022-09-03T20:10:55;21.70;49.90
21439;DHT22;10880;50.302;18.736;2022-09-03T20:13:23;21.70;49.80
21439;DHT22;10880;50.302;18.736;2022-09-03T20:16:08;21.60;49.70
21439;DHT22;10880;50.302;18.736;2022-09-03T20:21:50;21.60;49.70
21439;DHT22;10880;50.302;18.736;2022-09-03T20:30:20;21.60;50.20
21439;DHT22;10880;50.302;18.736;2022-09-03T20:33:17;21.60;50.10
21439;DHT22;10880;50.302;18.736;2022-09-03T20:36:00;21.60;50.20
21439;DHT22;10880;50.302;18.736;2022-09-03T20:47:56;21.60;50.20
21439;DHT22;10880;50.302;18.736;2022-09-03T20:50:53;21.60;50.30
21439;DHT22;10880;50.302;18.736;2022-09-03T20:54:15;21.60;50.30
21439;DHT22;10880;50.302;18.736;2022-09-03T21:05:00;21.60;50.30
21439;DHT22;10880;50.302;18.736;2022-09-03T21:10:17;21.60;50.20
21439;DHT22;10880;50.302;18.736;2022-09-03T21:13:06;21.60;50.30
21439;DHT22;10880;50.302;18.736;2022-09-03T21:27:18;21.50;50.20
21439;DHT22;10880;50.302;18.736;2022-09-03T21:30:10;21.50;50.30
21439;DHT22;10880;50.302;18.736;2022-09-03T21:35:49;21.50;49.90
21439;DHT22;10880;50.302;18.736;2022-09-03T21:38:16;21.50;50.50
21439;DHT22;10880;50.302;18.736;2022-09-03T21:46:59;21.40;50.50
21439;DHT22;10880;50.302;18.736;2022-09-03T21:49:31;21.40;50.50
21439;DHT22;10880;50.302;18.736;2022-09-03T21:52:07;21.40;50.40
21439;DHT22;10880;50.302;18.736;2022-09-03T21:54:36;21.40;50.50
21439;DHT22;10880;50.302;18.736;2022-09-03T22:02:30;21.40;50.60
21439;DHT22;10880;50.302;18.736;2022-09-03T22:04:59;21.40;50.60
21439;DHT22;10880;50.302;18.736;2022-09-03T22:10:30;21.40;51.40
21439;DHT22;10880;50.302;18.736;2022-09-03T22:13:13;21.40;50.80
21439;DHT22;10880;50.302;18.736;2022-09-03T22:15:44;21.30;50.70
21439;DHT22;10880;50.302;18.736;2022-09-03T22:18:25;21.30;50.70
21439;DHT22;10880;50.302;18.736;2022-09-03T22:24:17;21.30;50.80
21439;DHT22;10880;50.302;18.736;2022-09-03T22:26:56;21.30;50.80